Upstream stations:
Downstream station:
SHEF ID: AMAT2 Canadian Rv nr Amarillo, TX
STATION TYPE:
Regulating: Stage = 13.00, Flow = 87096
PRECIP STAGE RIV-FLOW WTR-TEMP CONDUCT BAT-LOAD
in ft cfs F umho/cm volt
Ccp-Rev Ccp-Rev Ccp-Rev Ccp-Rev Ccp-Rev Ccp-Rev
(US/Central)
03/23 00:00 ---- 1.37 64 45.14 4 11.77
03/23 01:00 ---- 1.38 65 44.98 4 11.77
03/23 02:00 ---- 1.38 65 44.89 4 11.77
03/23 03:00 ---- 1.38 65 44.31 4 11.77
03/23 04:00 ---- 1.39 67 43.70 4 11.77
03/23 05:00 ---- 1.38 65 43.11 4 11.77
03/23 06:00 ---- 1.39 67 42.58 4 11.77
03/23 07:00 ---- 1.40 69 41.99 4 11.77
03/23 08:00 ---- 1.40 69 41.58 4 11.77
03/23 09:00 ---- 1.37 64 41.63 4 11.93
03/23 10:00 ---- 1.38 65 43.03 4 12.09
03/23 11:00 ---- 1.42 72 45.79 4 12.17
03/23 12:00 ---- 1.38 65 48.96 4 12.17
03/23 13:00 ---- 1.38 65 52.23 4 12.25
03/23 14:00 ---- 1.39 67 55.69 4 12.25
03/23 15:00 ---- 1.40 69 58.93 4 12.17
03/23 16:00 ---- 1.43 73 60.94 4 12.17
03/23 17:00 ---- 1.45 77 61.47 4 12.17
03/23 18:00 ---- 1.45 77 60.40 4 12.09
03/23 19:00 ---- 1.45 77 58.68 3 12.09
03/23 20:00 ---- 1.45 77 56.97 3 12.09
03/23 21:00 ---- 1.45 77 55.67 3 12.09
03/23 22:00 ---- 1.44 75 54.68 3 12.01
03/23 23:00 ---- 1.43 73 53.55 3 12.01